createdAt,value
2022-12-04T00:00:44.399Z,33.40
2022-12-04T00:02:51.935Z,36.10
2022-12-04T00:04:56.809Z,36.60
2022-12-04T00:07:01.710Z,37.50
2022-12-04T00:09:07.575Z,36.60
2022-12-04T00:11:14.036Z,38.30
2022-12-04T00:13:18.712Z,37.60
2022-12-04T00:15:25.526Z,38.80
2022-12-04T00:17:30.573Z,36.10
2022-12-04T00:19:35.317Z,37.40
2022-12-04T00:21:40.068Z,41.00
2022-12-04T00:23:44.983Z,34.10
2022-12-04T00:25:49.849Z,38.00
2022-12-04T00:27:54.532Z,36.90
2022-12-04T00:29:59.256Z,40.70
2022-12-04T00:32:04.027Z,37.60
2022-12-04T00:34:08.788Z,41.30
2022-12-04T00:36:15.691Z,37.80
2022-12-04T00:38:20.353Z,37.50
2022-12-04T00:40:25.072Z,37.60
2022-12-04T00:42:29.731Z,37.50
2022-12-04T00:44:34.454Z,38.20
2022-12-04T00:46:39.115Z,38.00
2022-12-04T00:48:44.221Z,37.50
2022-12-04T00:50:48.909Z,37.90
2022-12-04T00:52:53.535Z,37.10
2022-12-04T00:54:58.242Z,39.70
2022-12-04T00:57:02.948Z,36.40
2022-12-04T00:59:07.541Z,38.00
2022-12-04T01:01:14.282Z,38.80
2022-12-04T01:03:19.139Z,38.30
2022-12-04T01:05:24.136Z,41.30
2022-12-04T01:07:28.897Z,37.60
2022-12-04T01:09:33.613Z,38.50
2022-12-04T01:11:38.219Z,35.00
2022-12-04T01:13:42.940Z,38.90
2022-12-04T01:15:47.629Z,37.10
2022-12-04T01:17:52.300Z,38.50
2022-12-04T01:19:57.318Z,40.00
2022-12-04T01:22:02.151Z,41.30
2022-12-04T01:24:10.355Z,38.50
2022-12-04T01:26:15.526Z,36.50
2022-12-04T01:28:20.182Z,37.30
2022-12-04T01:30:24.858Z,33.30
2022-12-04T01:32:30.125Z,36.70
2022-12-04T01:34:35.970Z,31.80
2022-12-04T01:36:40.576Z,35.60
2022-12-04T01:38:45.482Z,35.50
2022-12-04T01:40:50.433Z,32.60
2022-12-04T01:42:55.042Z,31.80
2022-12-04T01:45:36.266Z,31.00
2022-12-04T01:47:40.953Z,34.50
2022-12-04T01:49:48.084Z,29.70
2022-12-04T01:51:56.209Z,29.40
2022-12-04T01:54:03.932Z,29.80
2022-12-04T01:56:10.855Z,30.90
2022-12-04T01:58:17.599Z,28.50
2022-12-04T02:00:22.937Z,29.40
2022-12-04T02:02:32.555Z,26.90
2022-12-04T02:04:38.721Z,28.60
2022-12-04T02:06:43.469Z,28.10
2022-12-04T02:08:48.268Z,27.70
2022-12-04T02:11:04.937Z,28.50
2022-12-04T02:13:16.860Z,29.60
2022-12-04T02:15:28.620Z,29.80
2022-12-04T02:17:40.525Z,29.50
2022-12-04T02:20:07.541Z,28.40
2022-12-04T02:22:24.537Z,30.10
2022-12-04T02:24:49.815Z,29.40
2022-12-04T02:27:01.314Z,29.30
2022-12-04T02:29:12.074Z,28.20
2022-12-04T02:31:20.697Z,29.90
2022-12-04T02:33:29.699Z,31.30
2022-12-04T02:35:37.329Z,31.30
2022-12-04T02:37:45.705Z,31.90
2022-12-04T02:39:56.923Z,34.00
2022-12-04T02:42:08.092Z,31.30
2022-12-04T02:44:19.508Z,31.70
2022-12-04T02:46:28.833Z,34.10
2022-12-04T02:48:40.166Z,34.00
2022-12-04T02:50:46.985Z,35.80
2022-12-04T02:52:55.744Z,33.60
2022-12-04T02:55:08.670Z,36.60
2022-12-04T02:57:18.790Z,33.00
2022-12-04T02:59:29.283Z,36.40
2022-12-04T03:01:38.227Z,34.30
2022-12-04T03:03:43.277Z,35.20
2022-12-04T03:05:55.682Z,31.50
2022-12-04T03:08:04.305Z,34.40
2022-12-04T03:10:13.411Z,35.10
2022-12-04T03:12:24.301Z,33.60
2022-12-04T03:14:32.577Z,34.70
2022-12-04T03:16:41.139Z,32.70
2022-12-04T03:18:49.955Z,34.60
2022-12-04T03:20:58.059Z,35.40
2022-12-04T03:23:09.719Z,33.60
2022-12-04T03:25:14.568Z,33.40
2022-12-04T03:27:26.244Z,33.20
2022-12-04T03:29:35.719Z,33.10
2022-12-04T03:31:46.123Z,33.20
2022-12-04T03:33:56.337Z,31.60
2022-12-04T03:36:07.758Z,35.50
2022-12-04T03:38:18.655Z,31.50
2022-12-04T03:40:28.554Z,31.70
2022-12-04T03:42:40.925Z,33.90
2022-12-04T03:44:49.865Z,34.00
2022-12-04T03:46:59.980Z,31.60
2022-12-04T03:49:13.068Z,31.40
2022-12-04T03:51:22.370Z,30.50
2022-12-04T03:53:32.577Z,33.20
2022-12-04T03:55:44.384Z,29.70
2022-12-04T03:57:51.575Z,31.70
2022-12-04T04:00:01.913Z,29.80
2022-12-04T04:02:14.064Z,31.80
2022-12-04T04:04:23.140Z,27.40
2022-12-04T04:06:32.632Z,29.70
2022-12-04T04:08:42.743Z,32.20
2022-12-04T04:10:48.643Z,32.20
2022-12-04T04:12:59.966Z,33.00
2022-12-04T04:15:12.394Z,33.70
2022-12-04T04:17:22.489Z,34.50
2022-12-04T04:19:32.547Z,32.90
2022-12-04T04:21:38.939Z,35.40
2022-12-04T04:23:46.769Z,36.00
2022-12-04T04:25:52.977Z,35.20
2022-12-04T04:27:59.938Z,37.20
2022-12-04T04:30:06.182Z,37.10
2022-12-04T04:32:17.906Z,38.90
2022-12-04T04:34:32.635Z,37.60
2022-12-04T04:36:46.170Z,39.30
2022-12-04T04:38:59.227Z,39.80
2022-12-04T04:41:09.984Z,40.80
2022-12-04T04:43:20.277Z,40.80
2022-12-04T04:45:29.248Z,38.40
2022-12-04T04:47:43.677Z,40.30
2022-12-04T04:49:49.885Z,35.60
2022-12-04T04:51:56.893Z,37.60
2022-12-04T04:54:05.080Z,40.00
2022-12-04T04:56:10.445Z,40.50
2022-12-04T04:58:17.593Z,41.10
2022-12-04T05:00:24.001Z,39.70
2022-12-04T05:02:29.250Z,40.70
2022-12-04T05:04:33.859Z,40.10
2022-12-04T05:06:38.521Z,37.00
2022-12-04T05:08:43.440Z,40.10
2022-12-04T05:10:48.107Z,41.80
2022-12-04T05:12:52.680Z,41.30
2022-12-04T05:14:57.350Z,37.80
2022-12-04T05:17:02.269Z,40.10
2022-12-04T05:19:07.827Z,40.30
2022-12-04T05:21:14.110Z,40.30
2022-12-04T05:23:18.741Z,41.90
2022-12-04T05:25:23.619Z,39.30
2022-12-04T05:27:30.110Z,45.00
2022-12-04T05:29:36.098Z,41.00
2022-12-04T05:31:40.966Z,40.00
2022-12-04T05:33:45.667Z,40.30
2022-12-04T05:35:59.784Z,42.00
2022-12-04T05:38:04.488Z,38.00
2022-12-04T05:40:11.073Z,42.20
2022-12-04T05:42:15.964Z,40.10
2022-12-04T05:44:20.535Z,42.90
2022-12-04T05:46:25.287Z,40.30
2022-12-04T05:48:29.966Z,40.70
2022-12-04T05:50:34.607Z,42.70
2022-12-04T05:52:39.265Z,42.40
2022-12-04T05:54:43.918Z,41.20
2022-12-04T05:56:48.580Z,42.20
2022-12-04T05:58:53.176Z,43.60
2022-12-04T06:00:58.091Z,41.60
2022-12-04T06:03:02.696Z,40.80
2022-12-04T06:05:08.161Z,39.60
2022-12-04T06:07:13.077Z,39.70
2022-12-04T06:09:17.870Z,41.70
2022-12-04T06:11:26.205Z,42.20
2022-12-04T06:13:30.806Z,42.30
2022-12-04T06:15:39.476Z,42.20
2022-12-04T06:17:44.121Z,42.00
2022-12-04T06:19:49.010Z,42.20
2022-12-04T06:21:54.689Z,42.60
2022-12-04T06:23:59.572Z,38.90
2022-12-04T06:26:07.444Z,40.10
2022-12-04T06:28:12.139Z,39.80
2022-12-04T06:30:17.081Z,41.10
2022-12-04T06:32:22.289Z,38.60
2022-12-04T06:34:27.609Z,39.90
2022-12-04T06:36:32.955Z,42.40
2022-12-04T06:38:37.900Z,41.40
2022-12-04T06:40:42.615Z,40.80
2022-12-04T06:42:47.476Z,39.70
2022-12-04T06:44:52.194Z,40.20
2022-12-04T06:47:00.754Z,38.50
2022-12-04T06:49:05.906Z,40.60
2022-12-04T06:51:12.502Z,40.20
2022-12-04T06:53:17.217Z,40.30
2022-12-04T06:55:21.929Z,38.10
2022-12-04T06:57:26.759Z,38.90
2022-12-04T06:59:31.489Z,36.80
2022-12-04T07:01:36.717Z,40.60
2022-12-04T07:03:46.363Z,38.70
2022-12-04T07:05:55.592Z,37.30
2022-12-04T07:08:00.360Z,40.50
2022-12-04T07:10:05.984Z,38.70
2022-12-04T07:12:10.772Z,39.40
2022-12-04T07:14:15.719Z,37.00
2022-12-04T07:16:22.495Z,39.90
2022-12-04T07:18:27.205Z,39.60
2022-12-04T07:20:32.630Z,39.40
2022-12-04T07:22:37.644Z,38.60
2022-12-04T07:24:42.278Z,37.60
2022-12-04T07:26:47.350Z,37.50
2022-12-04T07:28:52.022Z,36.20
2022-12-04T07:30:56.672Z,38.10
2022-12-04T07:33:01.329Z,36.50
2022-12-04T07:35:12.766Z,35.60
2022-12-04T07:37:17.427Z,37.10
2022-12-04T07:39:22.168Z,35.70
2022-12-04T07:41:26.900Z,36.60
2022-12-04T07:43:32.487Z,35.20
2022-12-04T07:45:38.383Z,32.40
2022-12-04T07:47:43.002Z,33.10
2022-12-04T07:49:47.701Z,32.90
2022-12-04T07:51:52.546Z,33.90
2022-12-04T07:54:02.057Z,34.20
2022-12-04T07:56:12.288Z,33.80
2022-12-04T07:58:17.064Z,32.90
2022-12-04T08:00:22.373Z,36.30
2022-12-04T08:02:27.035Z,33.80
2022-12-04T08:04:31.794Z,35.80
2022-12-04T08:06:36.774Z,33.80
2022-12-04T08:08:41.580Z,34.50
2022-12-04T08:10:46.212Z,34.20
2022-12-04T08:12:50.909Z,35.20
2022-12-04T08:14:55.652Z,35.10
2022-12-04T08:17:00.383Z,33.60
2022-12-04T08:19:05.195Z,36.50
2022-12-04T08:21:12.905Z,35.50
2022-12-04T08:23:17.658Z,30.60
2022-12-04T08:25:22.399Z,32.70
2022-12-04T08:27:27.036Z,34.30
2022-12-04T08:29:31.777Z,34.10
2022-12-04T08:31:37.288Z,33.90
2022-12-04T08:33:43.516Z,26.60
2022-12-04T08:35:48.206Z,32.50
2022-12-04T08:37:52.900Z,36.60
2022-12-04T08:39:57.840Z,32.30
2022-12-04T08:42:02.670Z,33.70
2022-12-04T08:44:07.691Z,33.10
2022-12-04T08:46:14.301Z,33.30
2022-12-04T08:48:19.145Z,34.40
2022-12-04T08:50:23.975Z,31.60
2022-12-04T08:52:28.653Z,33.90
2022-12-04T08:54:36.183Z,31.70
2022-12-04T08:56:41.607Z,35.70
2022-12-04T08:58:47.481Z,31.60
2022-12-04T09:00:52.926Z,31.10
2022-12-04T09:02:58.081Z,33.20
2022-12-04T09:05:04.422Z,34.60
2022-12-04T09:07:10.067Z,33.70
2022-12-04T09:09:16.494Z,33.40
2022-12-04T09:11:24.585Z,32.30
2022-12-04T09:13:32.096Z,33.00
2022-12-04T09:15:40.687Z,36.40
2022-12-04T09:17:46.645Z,36.40
2022-12-04T09:19:57.878Z,34.90
2022-12-04T09:22:07.247Z,34.60
2022-12-04T09:24:13.471Z,34.60
2022-12-04T09:26:25.508Z,32.40
2022-12-04T09:28:31.951Z,34.80
2022-12-04T09:30:37.951Z,32.90
2022-12-04T09:32:44.245Z,33.10
2022-12-04T09:34:52.774Z,35.60
2022-12-04T09:36:58.778Z,34.10
2022-12-04T09:39:12.529Z,33.00
2022-12-04T09:41:34.179Z,35.40
2022-12-04T09:43:51.346Z,35.30
2022-12-04T09:46:05.581Z,35.10
2022-12-04T09:48:14.575Z,33.10
2022-12-04T09:50:24.345Z,34.90
2022-12-04T09:52:46.371Z,35.70
2022-12-04T09:54:56.374Z,36.30
2022-12-04T09:57:13.003Z,33.10
2022-12-04T09:59:24.331Z,34.20
2022-12-04T10:01:40.110Z,32.60
2022-12-04T10:03:50.508Z,35.40
2022-12-04T10:06:08.681Z,35.60
2022-12-04T10:08:21.231Z,33.80
2022-12-04T10:10:36.960Z,32.90
2022-12-04T10:12:53.621Z,31.40
2022-12-04T10:15:12.036Z,33.50
2022-12-04T10:17:35.391Z,32.20
2022-12-04T10:19:53.143Z,34.30
2022-12-04T10:22:11.969Z,33.70
2022-12-04T10:24:39.422Z,30.70
2022-12-04T10:26:47.417Z,30.30
2022-12-04T10:28:56.773Z,30.00
2022-12-04T10:31:04.440Z,31.30
2022-12-04T10:33:19.384Z,26.20
2022-12-04T10:35:27.044Z,28.40
2022-12-04T10:37:39.386Z,26.90
2022-12-04T10:39:50.212Z,25.70
2022-12-04T10:42:01.484Z,27.70
2022-12-04T10:44:09.332Z,29.00
2022-12-04T10:46:19.984Z,26.90
2022-12-04T10:48:32.550Z,25.50
2022-12-04T10:50:37.627Z,25.20
2022-12-04T10:52:42.471Z,26.20
2022-12-04T10:54:51.011Z,23.00
2022-12-04T10:56:58.352Z,23.40
2022-12-04T10:59:05.698Z,22.00
2022-12-04T11:01:14.190Z,23.30
2022-12-04T11:03:28.515Z,22.30
2022-12-04T11:05:38.799Z,23.80
2022-12-04T11:07:48.540Z,23.80
2022-12-04T11:10:05.884Z,24.30
2022-12-04T11:12:19.258Z,23.80
2022-12-04T11:14:25.152Z,21.80
2022-12-04T11:16:37.367Z,22.90
2022-12-04T11:18:52.446Z,22.00
2022-12-04T11:21:00.057Z,20.60
2022-12-04T11:23:06.371Z,20.50
2022-12-04T11:25:19.950Z,20.60
2022-12-04T11:27:29.206Z,23.90
2022-12-04T11:29:37.759Z,22.60
2022-12-04T11:31:54.724Z,27.70
2022-12-04T11:34:06.650Z,21.40
2022-12-04T11:36:22.604Z,21.70
2022-12-04T11:38:33.946Z,22.30
2022-12-04T11:40:46.510Z,20.90
2022-12-04T11:43:04.685Z,20.20
2022-12-04T11:45:21.790Z,21.00
2022-12-04T11:47:30.495Z,22.40
2022-12-04T11:49:43.554Z,21.60
2022-12-04T11:52:02.738Z,21.10
2022-12-04T11:54:22.349Z,20.90
2022-12-04T11:56:42.601Z,20.30
2022-12-04T11:59:10.103Z,20.90
2022-12-04T12:01:33.995Z,21.60
2022-12-04T12:03:47.763Z,23.40
2022-12-04T12:06:15.304Z,23.00
2022-12-04T12:08:29.844Z,22.20
2022-12-04T12:10:45.665Z,21.70
2022-12-04T12:13:00.466Z,21.30
2022-12-04T12:15:14.187Z,22.10
2022-12-04T12:17:28.350Z,19.40
2022-12-04T12:19:48.072Z,21.10
2022-12-04T12:22:05.164Z,20.90
2022-12-04T12:24:29.794Z,23.10
2022-12-04T12:26:42.678Z,20.60
2022-12-04T12:29:16.368Z,20.50
2022-12-04T12:31:58.798Z,20.50
2022-12-04T12:34:09.610Z,19.70
2022-12-04T12:36:16.462Z,18.80
2022-12-04T12:38:27.183Z,20.10
2022-12-04T12:40:39.136Z,20.30
2022-12-04T12:42:58.490Z,19.80
2022-12-04T12:45:22.521Z,18.60
2022-12-04T12:47:37.984Z,19.00
2022-12-04T12:49:52.821Z,19.60
2022-12-04T12:52:05.339Z,19.80
2022-12-04T12:54:24.529Z,18.60
2022-12-04T12:56:46.158Z,19.60
2022-12-04T12:59:01.281Z,18.70
2022-12-04T13:03:45.767Z,18.40
2022-12-04T13:05:55.568Z,17.80
2022-12-04T13:08:13.969Z,20.00
2022-12-04T13:10:24.891Z,20.00
2022-12-04T13:12:34.956Z,18.50
2022-12-04T13:14:41.626Z,18.90
2022-12-04T13:16:53.980Z,19.30
2022-12-04T13:19:08.652Z,19.40
2022-12-04T13:21:28.784Z,18.50
2022-12-04T13:23:48.244Z,19.30
2022-12-04T13:26:05.101Z,20.80
2022-12-04T13:28:24.969Z,21.30
2022-12-04T13:30:42.448Z,20.60
2022-12-04T13:33:11.525Z,20.80
2022-12-04T13:35:28.529Z,27.80
2022-12-04T13:38:04.740Z,25.10
2022-12-04T13:40:36.299Z,20.90
2022-12-04T13:42:41.694Z,20.90
2022-12-04T13:44:56.165Z,23.80
2022-12-04T13:47:04.558Z,22.60
2022-12-04T13:49:26.680Z,20.80
2022-12-04T13:51:39.614Z,23.20
2022-12-04T13:53:44.970Z,25.10
2022-12-04T13:55:56.935Z,22.30
2022-12-04T13:58:04.280Z,25.40
2022-12-04T14:00:28.229Z,23.20
2022-12-04T14:02:34.906Z,21.60
2022-12-04T14:04:45.705Z,22.90
2022-12-04T14:06:53.295Z,22.10
2022-12-04T14:09:01.532Z,23.20
2022-12-04T14:11:12.247Z,23.00
2022-12-04T14:13:24.973Z,28.10
2022-12-04T14:15:32.836Z,23.70
2022-12-04T14:17:40.019Z,21.50
2022-12-04T14:19:52.435Z,24.50
2022-12-04T14:21:58.389Z,22.80
2022-12-04T14:24:15.447Z,21.20
2022-12-04T14:26:48.797Z,23.00
2022-12-04T14:29:04.913Z,21.90
2022-12-04T14:31:30.396Z,22.30
2022-12-04T14:33:43.166Z,22.10
2022-12-04T14:35:56.430Z,21.90
2022-12-04T14:38:06.336Z,21.80
2022-12-04T14:40:23.528Z,20.70
2022-12-04T14:42:39.028Z,21.80
2022-12-04T14:44:46.591Z,21.30
2022-12-04T14:47:01.210Z,20.60
2022-12-04T14:49:23.129Z,20.90
2022-12-04T14:51:34.325Z,20.70
2022-12-04T14:53:46.762Z,18.90
2022-12-04T14:56:07.781Z,18.80
2022-12-04T14:58:19.707Z,19.50
2022-12-04T15:00:26.488Z,20.40
2022-12-04T15:02:40.350Z,18.90
2022-12-04T15:04:47.645Z,20.00
2022-12-04T15:07:00.542Z,20.80
2022-12-04T15:09:17.124Z,17.50
2022-12-04T15:11:23.275Z,19.40
2022-12-04T15:13:31.386Z,20.10
2022-12-04T15:15:45.015Z,18.90
2022-12-04T15:18:04.787Z,22.00
2022-12-04T15:20:20.318Z,19.70
2022-12-04T15:22:31.019Z,20.10
2022-12-04T15:24:38.193Z,20.10
2022-12-04T15:26:44.369Z,19.50
2022-12-04T15:28:58.830Z,18.80
2022-12-04T15:31:10.275Z,19.90
2022-12-04T15:33:21.738Z,19.10
2022-12-04T15:35:33.359Z,21.80
2022-12-04T15:37:41.643Z,19.60
2022-12-04T15:39:52.466Z,21.30
2022-12-04T15:42:15.764Z,19.90
2022-12-04T15:44:31.619Z,20.80
2022-12-04T15:46:38.291Z,20.00
2022-12-04T15:48:47.843Z,22.00
2022-12-04T15:51:03.399Z,20.00
2022-12-04T15:53:16.463Z,22.20
2022-12-04T15:55:24.524Z,19.30
2022-12-04T15:57:39.072Z,20.80
2022-12-04T15:59:52.007Z,19.40
2022-12-04T16:02:03.630Z,20.30
2022-12-04T16:04:22.358Z,22.10
2022-12-04T16:06:32.567Z,21.40
2022-12-04T16:08:40.781Z,21.10
2022-12-04T16:10:59.402Z,20.40
2022-12-04T16:13:07.871Z,20.40
2022-12-04T16:15:19.098Z,19.00
2022-12-04T16:17:29.718Z,20.40
2022-12-04T16:19:39.219Z,17.10
2022-12-04T16:21:47.322Z,19.80
2022-12-04T16:23:53.362Z,20.30
2022-12-04T16:25:59.451Z,19.90
2022-12-04T16:28:06.415Z,20.20
2022-12-04T16:30:18.867Z,19.80
2022-12-04T16:32:33.580Z,19.60
2022-12-04T16:34:41.364Z,19.30
2022-12-04T16:36:48.721Z,19.20
2022-12-04T16:38:54.284Z,18.00
2022-12-04T16:41:01.194Z,20.10
2022-12-04T16:43:07.934Z,22.70
2022-12-04T16:45:24.326Z,21.80
2022-12-04T16:47:31.318Z,25.80
2022-12-04T16:49:43.655Z,19.60
2022-12-04T16:51:50.801Z,20.60
2022-12-04T16:53:57.680Z,22.00
2022-12-04T16:56:07.467Z,21.70
2022-12-04T16:58:14.597Z,22.40
2022-12-04T17:00:22.529Z,23.20
2022-12-04T17:02:29.054Z,22.50
2022-12-04T17:04:35.630Z,21.40
2022-12-04T17:06:44.139Z,24.80
2022-12-04T17:08:50.374Z,22.60
2022-12-04T17:10:57.755Z,23.30
2022-12-04T17:13:03.871Z,25.50
2022-12-04T17:15:10.815Z,24.00
2022-12-04T17:17:19.085Z,24.70
2022-12-04T17:19:25.489Z,22.80
2022-12-04T17:21:31.480Z,23.40
2022-12-04T17:23:39.582Z,23.70
2022-12-04T17:25:46.421Z,22.40
2022-12-04T17:27:57.024Z,21.10
2022-12-04T17:30:03.834Z,24.90
2022-12-04T17:32:10.599Z,23.20
2022-12-04T17:34:18.511Z,22.50
2022-12-04T17:36:27.275Z,23.80
2022-12-04T17:38:38.041Z,21.10
2022-12-04T17:40:45.993Z,22.90
2022-12-04T17:42:51.337Z,20.90
2022-12-04T17:44:58.193Z,22.80
2022-12-04T17:47:07.783Z,20.90
2022-12-04T17:49:18.701Z,24.70
2022-12-04T17:51:25.762Z,21.90
2022-12-04T17:53:31.070Z,23.00
2022-12-04T17:55:40.465Z,21.80
2022-12-04T17:57:46.757Z,22.10
2022-12-04T17:59:53.522Z,22.60
2022-12-04T18:01:59.548Z,22.40
2022-12-04T18:04:08.260Z,22.70
2022-12-04T18:06:17.832Z,23.90
2022-12-04T18:08:28.918Z,22.60
2022-12-04T18:10:38.382Z,25.40
2022-12-04T18:12:45.469Z,21.70
2022-12-04T18:14:53.622Z,21.20
2022-12-04T18:17:00.690Z,21.50
2022-12-04T18:19:09.018Z,23.20
2022-12-04T18:21:15.276Z,20.30
2022-12-04T18:23:26.221Z,20.40
2022-12-04T18:25:32.322Z,20.70
2022-12-04T18:27:42.067Z,21.60
2022-12-04T18:29:49.023Z,22.10
2022-12-04T18:31:55.957Z,19.90
2022-12-04T18:34:05.528Z,22.60
2022-12-04T18:36:17.428Z,22.90
2022-12-04T18:38:29.952Z,25.30
2022-12-04T18:40:37.913Z,22.00
2022-12-04T18:42:45.598Z,20.90
2022-12-04T18:44:52.418Z,21.00
2022-12-04T18:46:59.283Z,19.50
2022-12-04T18:49:08.022Z,20.50
2022-12-04T18:51:24.339Z,21.00
2022-12-04T18:53:30.914Z,22.90
2022-12-04T18:55:39.153Z,20.60
2022-12-04T18:57:44.643Z,21.80
2022-12-04T18:59:50.919Z,21.80
2022-12-04T19:01:58.161Z,21.10
2022-12-04T19:04:07.284Z,25.20
2022-12-04T19:06:15.305Z,20.50
2022-12-04T19:08:28.465Z,20.40
2022-12-04T19:10:40.412Z,22.20
2022-12-04T19:12:47.247Z,22.10
2022-12-04T19:14:54.818Z,21.20
2022-12-04T19:17:00.064Z,20.50
2022-12-04T19:19:07.309Z,18.70
2022-12-04T19:21:24.476Z,22.20
2022-12-04T19:23:33.994Z,21.30
2022-12-04T19:25:41.702Z,19.50
2022-12-04T19:27:48.962Z,18.80
2022-12-04T19:29:56.953Z,21.80
2022-12-04T19:32:04.660Z,20.90
2022-12-04T19:34:11.183Z,19.90
2022-12-04T19:36:18.807Z,20.90
2022-12-04T19:38:25.945Z,20.60
2022-12-04T19:40:35.385Z,19.80
2022-12-04T19:42:42.927Z,19.00
2022-12-04T19:44:50.886Z,21.20
2022-12-04T19:46:57.941Z,20.10
2022-12-04T19:49:09.882Z,18.80
2022-12-04T19:51:18.591Z,20.40
2022-12-04T19:53:26.251Z,20.40
2022-12-04T19:55:36.004Z,18.60
2022-12-04T19:57:43.973Z,19.10
2022-12-04T19:59:51.463Z,19.30
2022-12-04T20:02:02.431Z,22.30
2022-12-04T20:04:10.230Z,20.80
2022-12-04T20:06:19.321Z,18.50
2022-12-04T20:08:41.098Z,20.30
2022-12-04T20:10:47.998Z,19.10
2022-12-04T20:12:56.610Z,17.40
2022-12-04T20:15:05.437Z,19.80
2022-12-04T20:17:11.892Z,19.30
2022-12-04T20:19:19.628Z,20.30
2022-12-04T20:21:27.023Z,19.20
2022-12-04T20:23:35.441Z,19.10
2022-12-04T20:25:43.355Z,18.30
2022-12-04T20:27:52.414Z,18.80
2022-12-04T20:30:00.903Z,18.90
2022-12-04T20:32:09.027Z,18.20
2022-12-04T20:34:17.783Z,17.80
2022-12-04T20:36:27.019Z,19.50
2022-12-04T20:38:34.042Z,18.40
2022-12-04T20:40:40.935Z,18.20
2022-12-04T20:42:47.281Z,19.60
2022-12-04T20:44:54.660Z,19.30
2022-12-04T20:47:03.874Z,18.80
2022-12-04T20:49:17.232Z,21.10
2022-12-04T20:51:28.812Z,19.50
2022-12-04T20:53:34.947Z,17.70
2022-12-04T20:55:52.617Z,17.50
2022-12-04T20:58:04.493Z,18.90
2022-12-04T21:00:12.492Z,20.00
2022-12-04T21:02:18.224Z,18.70
2022-12-04T21:04:24.155Z,19.60
2022-12-04T21:06:35.051Z,19.40
2022-12-04T21:08:43.574Z,19.50
2022-12-04T21:10:49.070Z,18.60
2022-12-04T21:12:57.282Z,18.40
2022-12-04T21:15:02.994Z,17.20
2022-12-04T21:17:10.538Z,18.20
2022-12-04T21:19:20.748Z,16.20
2022-12-04T21:21:30.750Z,15.60
2022-12-04T21:23:35.976Z,16.70
2022-12-04T21:25:40.803Z,14.20
2022-12-04T21:27:45.837Z,13.50
2022-12-04T21:29:50.757Z,17.00
2022-12-04T21:31:56.021Z,14.30
2022-12-04T21:34:04.252Z,14.00
2022-12-04T21:36:10.785Z,13.60
2022-12-04T21:38:16.048Z,13.40
2022-12-04T21:40:20.928Z,14.50
2022-12-04T21:42:25.854Z,13.30
2022-12-04T21:44:30.674Z,15.10
2022-12-04T21:46:35.622Z,15.00
2022-12-04T21:48:40.500Z,13.20
2022-12-04T21:50:45.236Z,14.50
2022-12-04T21:52:49.855Z,15.50
2022-12-04T21:54:55.324Z,15.20
2022-12-04T21:57:00.371Z,15.50
2022-12-04T21:59:05.483Z,13.30
2022-12-04T22:01:12.528Z,15.60
2022-12-04T22:03:17.921Z,15.40
2022-12-04T22:05:22.906Z,15.50
2022-12-04T22:07:27.607Z,12.60
2022-12-04T22:09:32.477Z,16.70
2022-12-04T22:11:37.726Z,15.80
2022-12-04T22:13:42.783Z,16.40
2022-12-04T22:15:47.606Z,16.90
2022-12-04T22:17:52.515Z,16.40
2022-12-04T22:19:57.528Z,18.50
2022-12-04T22:22:02.631Z,17.60
2022-12-04T22:24:09.211Z,16.30
2022-12-04T22:26:15.693Z,18.00
2022-12-04T22:28:20.454Z,16.30
2022-12-04T22:30:25.694Z,17.10
2022-12-04T22:32:30.338Z,17.60
2022-12-04T22:34:35.301Z,19.00
2022-12-04T22:36:40.023Z,19.10
2022-12-04T22:39:05.889Z,21.80
2022-12-04T22:41:11.799Z,22.70
2022-12-04T22:43:16.422Z,23.60
2022-12-04T22:45:21.171Z,24.00
2022-12-04T22:47:25.961Z,18.10
2022-12-04T22:49:30.600Z,17.60
2022-12-04T22:51:35.268Z,17.70
2022-12-04T22:53:41.781Z,16.70
2022-12-04T22:55:46.415Z,15.70
2022-12-04T22:57:51.063Z,14.10
2022-12-04T22:59:56.043Z,14.80
2022-12-04T23:02:00.841Z,16.20
2022-12-04T23:04:05.708Z,16.70
2022-12-04T23:06:11.220Z,16.10
2022-12-04T23:08:16.083Z,16.60
2022-12-04T23:10:20.967Z,16.70
2022-12-04T23:12:25.690Z,16.20
2022-12-04T23:14:30.474Z,15.70
2022-12-04T23:16:38.112Z,15.20
2022-12-04T23:18:42.872Z,15.00
2022-12-04T23:20:47.540Z,15.60
2022-12-04T23:22:52.254Z,14.40
2022-12-04T23:24:56.904Z,16.50
2022-12-04T23:27:02.881Z,15.10
2022-12-04T23:29:29.582Z,16.80
2022-12-04T23:31:33.878Z,16.50
2022-12-04T23:33:38.947Z,16.10
2022-12-04T23:35:44.007Z,17.00
2022-12-04T23:37:48.689Z,16.00
2022-12-04T23:39:53.479Z,15.10
2022-12-04T23:41:58.149Z,13.80
2022-12-04T23:44:02.817Z,15.70
2022-12-04T23:46:11.233Z,14.40
2022-12-04T23:48:16.279Z,14.60
2022-12-04T23:50:21.169Z,13.50
2022-12-04T23:52:25.782Z,14.80
2022-12-04T23:54:30.570Z,16.50
2022-12-04T23:56:35.306Z,15.50
2022-12-04T23:58:41.115Z,15.60
